YDF weather

Deer Lake Airport
Deer Lake, Newfoundland and Labrador, Canada

Public forecast

Using degrees Celsius for public forecast. Weather courtesy of forecast.io.

Current aviation weather report (METAR) for Deer Lake Airport

Retrieved 2019/12/16 12:44 UTC (0 seconds ago):

CYDF 161244Z 23020G31KT 1/2SM SN BLSN VV005 M05/M06 A2903 RMK SN8 SLP832

Aviation forecast (TAF) for Deer Lake Airport

Retrieved 2019/12/16 14:42 UTC (0 seconds ago):

TAF CYDF 161338Z 1614/1702 24018G40KT 1SM -SHSN BLSN BKN015 OVC040 TEMPO 1614/1702 6SM -SHSN SCT015 OVC040 PROB40 1614/1702 3/4SM -SHSN BLSN VV010 RMK NXT FCST BY 162000Z